Portada
METAR-TAF:

METAR-TAF

Aeropuertos :

Mont-De-Marsan, Francia

latitud: 43-55N, longitud: 000-30W, altitud: 62 m

Observación

El informe se hizo hace 34 minutos, a las 21:30 UTC
Viento 3 kt del este-noreste
Temperatura 15°C
Humedad 82%
Presión 1014 hPa
Visibilidad 10 km o más
sin nubes por debajo de 1500 m y sin presencia de cumulonimbus.

METAR: LFBM 162130Z AUTO 07003KT CAVOK 15/12 Q1014 NOSIG

Hora: 00:04 (22:04 UTC)

Pronóstico

El informe se hizo hace 2 horas y 4 minutos, a las 20:00 UTC
Pronóstico válido del 16 a las 21 UTC al 17 a las 21 UTC
Viento 10 kt del sur-sureste
Visibilidad 10 km o más
sin nubes por debajo de 1500 m y sin presencia de cumulonimbus.
Evolucionando progresivamente
del 17 a las 09 UTC al 17 a las 11 UTC
Visibilidad: 4000 m
lluvia
Evolucionando progresivamente
del 17 a las 13 UTC al 17 a las 15 UTC
Visibilidad 10 km o más

TAF: LFBM 162000Z 1621/1721 15010KT CAVOK BECMG 1709/1711 4000 RA BECMG 1713/1715 9999 NSW NSC

Observaciones y pronósticos meteorológicos de más de 4000 aeropuertos (mensajes METAR y TAF).

Los puntos amarillos y rojos representan las estaciones disponibles.

Ponga el ratón en el punto deseado para ver el nombre de la estación.

Haga clic para ver las observaciones y los pronósticos meteorológicos.

Para cambiar el mapa : haga clic en los botones verdes con una cruz de color negro para hacer un zoom, en el botón verde con un guión para alejar o en las flechas verdes para mapas adyacentes.


METAR-TAF: